createdAt,value
2017-11-26T00:01:26.251Z,89.20
2017-11-26T00:03:53.724Z,89.20
2017-11-26T00:06:21.303Z,89.40
2017-11-26T00:08:48.775Z,89.60
2017-11-26T00:11:17.025Z,90.10
2017-11-26T00:13:44.537Z,90.00
2017-11-26T00:16:12.049Z,90.10
2017-11-26T00:18:39.519Z,90.10
2017-11-26T00:21:07.754Z,90.10
2017-11-26T00:23:35.586Z,90.10
2017-11-26T00:26:03.056Z,90.00
2017-11-26T00:28:30.674Z,90.00
2017-11-26T00:30:58.219Z,90.00
2017-11-26T00:33:25.688Z,89.90
2017-11-26T00:35:53.951Z,89.90
2017-11-26T00:38:21.419Z,89.80
2017-11-26T00:40:49.650Z,89.80
2017-11-26T00:43:17.115Z,89.70
2017-11-26T00:45:44.720Z,89.60
2017-11-26T00:48:12.292Z,89.70
2017-11-26T00:50:39.819Z,89.20
2017-11-26T00:53:07.287Z,89.10
2017-11-26T00:55:35.532Z,89.60
2017-11-26T00:58:03.008Z,89.60
2017-11-26T01:00:30.567Z,89.40
2017-11-26T01:02:58.114Z,89.50
2017-11-26T01:05:25.691Z,89.80
2017-11-26T01:07:53.922Z,89.80
2017-11-26T01:10:21.388Z,89.70
2017-11-26T01:12:49.000Z,89.70
2017-11-26T01:15:16.454Z,89.70
2017-11-26T01:20:17.791Z,90.00
2017-11-26T01:22:45.264Z,89.70
2017-11-26T01:25:13.578Z,89.40
2017-11-26T01:27:41.091Z,89.30
2017-11-26T01:30:09.339Z,89.50
2017-11-26T01:32:36.816Z,90.10
2017-11-26T01:35:04.275Z,89.60
2017-11-26T01:37:31.750Z,89.90
2017-11-26T01:39:59.982Z,89.60
2017-11-26T01:42:27.446Z,89.60
2017-11-26T01:44:54.906Z,89.40
2017-11-26T01:47:22.391Z,89.20
2017-11-26T01:49:50.649Z,89.40
2017-11-26T01:52:18.922Z,89.40
2017-11-26T01:54:46.382Z,89.40
2017-11-26T01:57:13.861Z,89.40
2017-11-26T01:59:42.113Z,89.20
2017-11-26T02:02:09.671Z,89.10
2017-11-26T02:04:37.234Z,88.80
2017-11-26T02:07:05.503Z,88.20
2017-11-26T02:09:33.018Z,88.10
2017-11-26T02:12:00.542Z,88.40
2017-11-26T02:14:28.774Z,88.60
2017-11-26T02:16:56.243Z,88.50
2017-11-26T02:19:23.815Z,88.70
2017-11-26T02:21:51.287Z,88.70
2017-11-26T02:24:19.527Z,88.90
2017-11-26T02:26:47.120Z,88.90
2017-11-26T02:29:14.667Z,88.70
2017-11-26T02:31:54.762Z,88.30
2017-11-26T02:34:34.252Z,88.30
2017-11-26T02:37:01.724Z,88.50
2017-11-26T02:39:29.999Z,88.80
2017-11-26T02:41:58.237Z,88.70
2017-11-26T02:44:25.715Z,88.50
2017-11-26T02:46:53.230Z,88.20
2017-11-26T02:49:20.713Z,88.20
2017-11-26T02:51:48.188Z,88.60
2017-11-26T02:54:15.812Z,88.40
2017-11-26T02:56:43.342Z,88.40
2017-11-26T02:59:10.866Z,88.30
2017-11-26T03:01:38.336Z,88.70
2017-11-26T03:04:06.577Z,88.80
2017-11-26T03:06:34.108Z,88.80
2017-11-26T03:09:01.620Z,88.30
2017-11-26T03:11:29.091Z,88.30
2017-11-26T03:13:57.335Z,88.90
2017-11-26T03:16:24.906Z,88.80
2017-11-26T03:18:52.367Z,88.90
2017-11-26T03:21:19.913Z,89.20
2017-11-26T03:23:47.387Z,89.10
2017-11-26T03:26:15.673Z,89.00
2017-11-26T03:28:43.913Z,88.60
2017-11-26T03:31:11.376Z,88.60
2017-11-26T03:33:38.843Z,88.60
2017-11-26T03:36:07.115Z,88.90
2017-11-26T03:38:34.582Z,88.90
2017-11-26T03:41:02.823Z,89.10
2017-11-26T03:43:30.396Z,89.00
2017-11-26T03:45:57.980Z,89.10
2017-11-26T03:48:26.214Z,89.20
2017-11-26T03:50:53.746Z,89.10
2017-11-26T03:53:21.207Z,89.40
2017-11-26T03:55:48.706Z,89.30
2017-11-26T03:58:16.266Z,89.20
2017-11-26T04:00:43.726Z,89.00
2017-11-26T04:03:11.189Z,89.30
2017-11-26T04:05:39.457Z,90.10
2017-11-26T04:08:06.922Z,89.20
2017-11-26T04:10:35.211Z,88.60
2017-11-26T04:13:03.518Z,89.30
2017-11-26T04:15:30.990Z,89.10
2017-11-26T04:17:58.492Z,89.10
2017-11-26T04:20:26.747Z,89.30
2017-11-26T04:22:54.214Z,89.20
2017-11-26T04:25:21.683Z,89.00
2017-11-26T04:27:49.945Z,88.70
2017-11-26T04:30:17.411Z,88.60
2017-11-26T04:32:45.638Z,88.10
2017-11-26T04:35:13.185Z,88.70
2017-11-26T04:37:40.642Z,88.70
2017-11-26T04:40:08.139Z,88.80
2017-11-26T04:42:35.597Z,88.80
2017-11-26T04:45:04.429Z,88.80
2017-11-26T04:47:31.887Z,88.90
2017-11-26T04:49:59.399Z,88.50
2017-11-26T04:52:26.958Z,88.40
2017-11-26T04:54:54.513Z,88.40
2017-11-26T04:57:21.975Z,88.30
2017-11-26T04:59:49.435Z,88.10
2017-11-26T05:02:16.997Z,88.30
2017-11-26T05:04:44.464Z,88.40
2017-11-26T05:07:11.936Z,88.50
2017-11-26T05:09:40.174Z,88.80
2017-11-26T05:12:07.638Z,88.70
2017-11-26T05:14:36.619Z,88.60
2017-11-26T05:17:04.095Z,88.60
2017-11-26T05:19:31.643Z,88.90
2017-11-26T05:21:59.208Z,88.80
2017-11-26T05:24:26.767Z,88.30
2017-11-26T05:26:54.222Z,88.30
2017-11-26T05:29:22.455Z,88.40
2017-11-26T05:31:49.935Z,88.40
2017-11-26T05:34:17.411Z,88.10
2017-11-26T05:36:44.875Z,88.00
2017-11-26T05:39:12.425Z,87.80
2017-11-26T05:41:39.983Z,87.90
2017-11-26T05:44:07.443Z,87.70
2017-11-26T05:46:34.953Z,87.50
2017-11-26T05:49:02.427Z,87.20
2017-11-26T05:51:29.976Z,87.70
2017-11-26T05:53:57.432Z,87.60
2017-11-26T05:56:24.926Z,87.80
2017-11-26T05:58:52.403Z,87.50
2017-11-26T06:01:20.664Z,87.90
2017-11-26T06:03:48.151Z,87.90
2017-11-26T06:06:15.743Z,87.90
2017-11-26T06:08:43.230Z,87.90
2017-11-26T06:11:10.848Z,88.10
2017-11-26T06:13:38.316Z,88.10
2017-11-26T06:16:05.786Z,87.70
2017-11-26T06:18:33.424Z,88.00
2017-11-26T06:21:00.888Z,88.20
2017-11-26T06:23:28.383Z,88.60
2017-11-26T06:25:55.946Z,88.80
2017-11-26T06:28:23.493Z,88.00
2017-11-26T06:30:50.960Z,88.10
2017-11-26T06:33:18.419Z,88.50
2017-11-26T06:35:45.891Z,88.70
2017-11-26T06:38:14.131Z,88.50
2017-11-26T06:40:41.603Z,88.30
2017-11-26T06:43:09.840Z,88.40
2017-11-26T06:45:37.311Z,88.40
2017-11-26T06:48:04.774Z,88.00
2017-11-26T06:50:32.245Z,88.10
2017-11-26T06:52:59.859Z,88.10
2017-11-26T06:55:27.326Z,88.40
2017-11-26T06:57:54.792Z,88.40
2017-11-26T07:00:22.333Z,88.80
2017-11-26T07:02:49.835Z,88.70
2017-11-26T07:05:17.293Z,89.10
2017-11-26T07:07:45.530Z,88.00
2017-11-26T07:10:13.017Z,88.00
2017-11-26T07:12:40.483Z,88.50
2017-11-26T07:15:07.950Z,88.50
2017-11-26T07:17:36.193Z,89.20
2017-11-26T07:20:03.655Z,88.30
2017-11-26T07:22:31.238Z,88.50
2017-11-26T07:24:58.789Z,88.00
2017-11-26T07:27:26.348Z,88.00
2017-11-26T07:29:53.825Z,87.80
2017-11-26T07:32:22.066Z,87.70
2017-11-26T07:34:49.544Z,87.60
2017-11-26T07:37:17.011Z,87.90
2017-11-26T07:39:45.279Z,88.00
2017-11-26T07:42:12.759Z,88.00
2017-11-26T07:44:40.222Z,87.80
2017-11-26T07:47:07.717Z,87.70
2017-11-26T07:49:35.193Z,87.70
2017-11-26T07:52:02.655Z,87.30
2017-11-26T07:54:30.228Z,86.90
2017-11-26T07:56:58.471Z,87.40
2017-11-26T07:59:25.953Z,87.40
2017-11-26T08:01:54.255Z,88.70
2017-11-26T08:04:21.792Z,87.80
2017-11-26T08:06:49.250Z,88.10
2017-11-26T08:09:17.496Z,88.60
2017-11-26T08:11:45.231Z,88.40
2017-11-26T08:14:12.834Z,87.40
2017-11-26T08:16:40.354Z,87.90
2017-11-26T08:19:07.821Z,87.90
2017-11-26T08:21:35.291Z,88.10
2017-11-26T08:24:02.759Z,88.10
2017-11-26T08:26:30.266Z,87.80
2017-11-26T08:28:57.773Z,87.90
2017-11-26T08:31:25.252Z,87.90
2017-11-26T08:33:53.513Z,88.00
2017-11-26T08:36:20.992Z,87.90
2017-11-26T08:38:49.350Z,86.40
2017-11-26T08:41:16.822Z,86.30
2017-11-26T08:43:45.047Z,88.20
2017-11-26T08:46:12.519Z,88.20
2017-11-26T08:48:39.985Z,85.60
2017-11-26T08:51:07.465Z,84.90
2017-11-26T08:53:36.096Z,85.80
2017-11-26T08:56:03.561Z,85.70
2017-11-26T08:58:31.021Z,86.20
2017-11-26T09:00:58.489Z,86.50
2017-11-26T09:03:25.950Z,86.70
2017-11-26T09:05:53.418Z,86.20
2017-11-26T09:11:22.931Z,86.00
2017-11-26T09:13:50.395Z,85.40
2017-11-26T09:16:17.872Z,85.20
2017-11-26T09:18:46.103Z,85.40
2017-11-26T09:21:13.566Z,85.30
2017-11-26T09:23:41.174Z,83.80
2017-11-26T09:26:08.699Z,84.20
2017-11-26T09:28:36.639Z,84.00
2017-11-26T09:31:04.922Z,84.30
2017-11-26T09:33:32.481Z,85.10
2017-11-26T09:35:59.942Z,84.60
2017-11-26T09:38:27.403Z,84.00
2017-11-26T09:40:55.154Z,84.50
2017-11-26T09:43:23.436Z,84.30
2017-11-26T09:45:50.902Z,84.30
2017-11-26T09:48:18.959Z,84.60
2017-11-26T09:50:46.491Z,84.40
2017-11-26T09:53:13.958Z,84.50
2017-11-26T09:55:41.406Z,83.80
2017-11-26T09:58:08.872Z,84.80
2017-11-26T10:00:36.345Z,84.90
2017-11-26T10:03:03.809Z,84.80
2017-11-26T10:05:31.269Z,84.50
2017-11-26T10:07:59.302Z,84.60
2017-11-26T10:10:26.823Z,84.70
2017-11-26T10:12:55.055Z,83.60
2017-11-26T10:15:22.524Z,83.60
2017-11-26T10:17:50.055Z,84.10
2017-11-26T10:20:17.915Z,83.50
2017-11-26T10:22:45.413Z,84.10
2017-11-26T10:25:12.968Z,83.40
2017-11-26T10:27:40.645Z,82.50
2017-11-26T10:30:08.117Z,81.00
2017-11-26T10:32:36.339Z,78.90
2017-11-26T10:35:03.823Z,78.80
2017-11-26T10:37:31.378Z,79.50
2017-11-26T10:39:58.847Z,77.00
2017-11-26T10:42:26.402Z,78.80
2017-11-26T10:44:53.967Z,73.90
2017-11-26T10:47:21.423Z,72.80
2017-11-26T10:49:49.679Z,73.30
2017-11-26T10:52:17.136Z,73.20
2017-11-26T10:54:44.610Z,69.70
2017-11-26T10:57:12.079Z,70.80
2017-11-26T10:59:40.303Z,73.90
2017-11-26T11:02:07.799Z,73.80
2017-11-26T11:04:35.366Z,75.60
2017-11-26T11:07:03.632Z,76.80
2017-11-26T11:09:31.195Z,76.40
2017-11-26T11:11:58.701Z,75.70
2017-11-26T11:14:26.159Z,75.30
2017-11-26T11:16:53.639Z,74.50
2017-11-26T11:19:21.095Z,74.20
2017-11-26T11:21:48.627Z,74.90
2017-11-26T11:24:16.079Z,75.30
2017-11-26T11:26:43.548Z,70.90
2017-11-26T11:29:11.026Z,70.10
2017-11-26T11:31:38.487Z,73.20
2017-11-26T11:34:05.954Z,73.00
2017-11-26T11:36:33.413Z,74.20
2017-11-26T11:39:00.971Z,74.40
2017-11-26T11:41:29.992Z,74.10
2017-11-26T11:43:58.210Z,75.00
2017-11-26T11:46:25.667Z,75.00
2017-11-26T11:48:53.132Z,75.00
2017-11-26T11:51:20.615Z,74.40
2017-11-26T11:53:48.154Z,72.50
2017-11-26T11:56:15.605Z,72.00
2017-11-26T11:58:43.076Z,73.00
2017-11-26T12:01:10.536Z,75.00
2017-11-26T12:03:38.015Z,74.00
2017-11-26T12:06:06.253Z,75.40
2017-11-26T12:08:33.782Z,74.50
2017-11-26T12:11:01.251Z,74.70
2017-11-26T12:13:28.701Z,75.50
2017-11-26T12:15:56.159Z,75.40
2017-11-26T12:18:23.616Z,76.00
2017-11-26T12:20:51.090Z,76.40
2017-11-26T12:23:18.554Z,76.10
2017-11-26T12:25:46.127Z,76.00
2017-11-26T12:28:13.685Z,76.60
2017-11-26T12:30:41.152Z,77.60
2017-11-26T12:33:08.693Z,77.50
2017-11-26T12:35:36.160Z,77.40
2017-11-26T12:38:03.717Z,76.70
2017-11-26T12:40:31.183Z,77.40
2017-11-26T12:42:58.734Z,77.40
2017-11-26T12:45:26.223Z,77.20
2017-11-26T12:47:53.679Z,77.50
2017-11-26T12:50:21.138Z,77.00
2017-11-26T12:52:48.657Z,77.50
2017-11-26T12:55:16.115Z,76.70
2017-11-26T12:57:43.596Z,76.40
2017-11-26T13:00:11.822Z,77.50
2017-11-26T13:02:39.285Z,77.40
2017-11-26T13:05:06.738Z,77.10
2017-11-26T13:07:34.207Z,77.10
2017-11-26T13:10:01.671Z,76.90
2017-11-26T13:12:29.149Z,77.50
2017-11-26T13:14:57.382Z,77.30
2017-11-26T13:17:24.841Z,77.20
2017-11-26T13:19:52.306Z,77.50
2017-11-26T13:22:19.764Z,77.50
2017-11-26T13:24:47.211Z,78.10
2017-11-26T13:27:14.692Z,77.30
2017-11-26T13:29:42.243Z,77.60
2017-11-26T13:32:09.703Z,77.40
2017-11-26T13:34:37.163Z,77.00
2017-11-26T13:37:04.732Z,76.60
2017-11-26T13:39:32.200Z,77.30
2017-11-26T13:42:00.436Z,77.60
2017-11-26T13:44:27.903Z,77.50
2017-11-26T13:46:55.460Z,77.70
2017-11-26T13:49:23.082Z,78.20
2017-11-26T13:51:50.537Z,78.20
2017-11-26T13:54:18.002Z,78.30
2017-11-26T13:56:45.462Z,77.70
2017-11-26T13:59:12.919Z,78.10
2017-11-26T14:01:40.406Z,78.00
2017-11-26T14:04:07.962Z,78.50
2017-11-26T14:06:35.534Z,79.10
2017-11-26T14:09:03.031Z,79.40
2017-11-26T14:11:30.490Z,79.10
2017-11-26T14:13:57.958Z,79.00
2017-11-26T14:16:25.427Z,79.60
2017-11-26T14:18:52.914Z,79.00
2017-11-26T14:21:20.387Z,78.80
2017-11-26T14:23:47.842Z,79.30
2017-11-26T14:26:16.075Z,79.90
2017-11-26T14:28:43.540Z,79.80
2017-11-26T14:31:10.991Z,79.60
2017-11-26T14:33:38.525Z,79.10
2017-11-26T14:36:05.997Z,79.00
2017-11-26T14:38:33.451Z,80.50
2017-11-26T14:41:00.923Z,79.80
2017-11-26T14:43:28.379Z,79.10
2017-11-26T14:45:55.967Z,79.30
2017-11-26T14:48:23.427Z,79.20
2017-11-26T14:50:51.691Z,79.50
2017-11-26T14:53:19.508Z,79.40
2017-11-26T14:55:47.115Z,79.40
2017-11-26T14:58:14.588Z,79.60
2017-11-26T15:00:42.847Z,79.70
2017-11-26T15:03:10.303Z,79.70
2017-11-26T15:05:37.766Z,79.10
2017-11-26T15:08:05.229Z,79.40
2017-11-26T15:10:33.486Z,79.20
2017-11-26T15:13:00.955Z,79.20
2017-11-26T15:15:28.414Z,79.70
2017-11-26T15:17:55.969Z,79.60
2017-11-26T15:20:24.938Z,79.60
2017-11-26T15:22:52.528Z,79.60
2017-11-26T15:25:21.161Z,80.00
2017-11-26T15:27:48.623Z,79.90
2017-11-26T15:30:16.088Z,80.10
2017-11-26T15:32:43.542Z,80.30
2017-11-26T15:35:11.040Z,80.20
2017-11-26T15:37:38.522Z,80.30
2017-11-26T15:40:05.978Z,80.70
2017-11-26T15:42:33.499Z,80.80
2017-11-26T15:45:00.966Z,81.10
2017-11-26T15:47:29.294Z,82.60
2017-11-26T15:49:56.771Z,81.80
2017-11-26T15:52:24.228Z,81.50
2017-11-26T15:54:51.785Z,81.80
2017-11-26T15:57:19.261Z,81.30
2017-11-26T15:59:46.976Z,81.30
2017-11-26T16:02:14.575Z,81.60
2017-11-26T16:04:42.055Z,81.70
2017-11-26T16:07:10.281Z,81.90
2017-11-26T16:09:37.739Z,81.90
2017-11-26T16:12:05.229Z,82.70
2017-11-26T16:14:32.695Z,83.70
2017-11-26T16:17:00.940Z,84.60
2017-11-26T16:19:28.395Z,84.60
2017-11-26T16:21:55.858Z,84.70
2017-11-26T16:24:23.314Z,84.20
2017-11-26T16:26:50.786Z,84.70
2017-11-26T16:29:19.023Z,84.60
2017-11-26T16:31:46.555Z,84.60
2017-11-26T16:34:14.336Z,85.00
2017-11-26T16:36:43.174Z,84.50
2017-11-26T16:39:10.626Z,84.80
2017-11-26T16:41:38.112Z,84.70
2017-11-26T16:44:06.335Z,85.60
2017-11-26T16:46:33.811Z,85.60
2017-11-26T16:49:01.270Z,85.70
2017-11-26T16:51:28.726Z,86.90
2017-11-26T16:53:56.238Z,87.40
2017-11-26T16:56:23.698Z,87.60
2017-11-26T16:58:51.166Z,88.20
2017-11-26T17:01:18.623Z,87.90
2017-11-26T17:03:46.087Z,87.90
2017-11-26T17:06:13.545Z,88.50
2017-11-26T17:08:41.010Z,88.40
2017-11-26T17:11:08.472Z,88.60
2017-11-26T17:13:36.038Z,88.90
2017-11-26T17:16:03.655Z,89.10
2017-11-26T17:18:31.147Z,89.40
2017-11-26T17:20:58.597Z,89.10
2017-11-26T17:23:26.074Z,88.90
2017-11-26T17:25:53.545Z,89.20
2017-11-26T17:28:21.779Z,89.60
2017-11-26T17:30:49.246Z,89.50
2017-11-26T17:33:16.715Z,89.70
2017-11-26T17:35:44.269Z,89.80
2017-11-26T17:38:11.828Z,89.50
2017-11-26T17:40:39.277Z,89.70
2017-11-26T17:43:06.764Z,89.60
2017-11-26T17:45:35.009Z,89.50
2017-11-26T17:48:02.462Z,89.50
2017-11-26T17:50:30.020Z,89.60
2017-11-26T17:52:57.494Z,89.50
2017-11-26T17:55:24.986Z,89.00
2017-11-26T17:57:52.498Z,89.20
2017-11-26T18:00:19.955Z,89.40
2017-11-26T18:02:47.419Z,89.60
2017-11-26T18:05:15.007Z,88.90
2017-11-26T18:07:43.321Z,89.00
2017-11-26T18:10:10.792Z,89.00
2017-11-26T18:12:38.262Z,89.00
2017-11-26T18:15:05.830Z,89.40
2017-11-26T18:17:33.291Z,90.00
2017-11-26T18:20:00.746Z,89.30
2017-11-26T18:22:28.304Z,89.30
2017-11-26T18:24:55.862Z,88.90
2017-11-26T18:27:23.336Z,88.80
2017-11-26T18:29:51.606Z,88.50
2017-11-26T18:32:19.086Z,88.50
2017-11-26T18:34:46.550Z,87.90
2017-11-26T18:37:14.008Z,88.30
2017-11-26T18:39:41.518Z,88.40
2017-11-26T18:42:09.043Z,88.20
2017-11-26T18:44:36.498Z,87.70
2017-11-26T18:47:04.021Z,87.60
2017-11-26T18:49:31.604Z,87.80
2017-11-26T18:51:59.062Z,87.70
2017-11-26T18:54:26.534Z,88.10
2017-11-26T18:56:54.000Z,88.10
2017-11-26T18:59:21.560Z,87.90
2017-11-26T19:01:49.141Z,88.20
2017-11-26T19:04:16.607Z,88.00
2017-11-26T19:06:44.070Z,87.80
2017-11-26T19:09:12.333Z,88.10
2017-11-26T19:11:39.792Z,87.90
2017-11-26T19:14:07.344Z,88.00
2017-11-26T19:16:34.907Z,87.80
2017-11-26T19:19:03.162Z,87.90
2017-11-26T19:21:30.747Z,87.80
2017-11-26T19:23:58.226Z,87.60
2017-11-26T19:26:25.701Z,87.60
2017-11-26T19:28:53.162Z,87.50
2017-11-26T19:31:20.722Z,87.90
2017-11-26T19:33:48.237Z,87.60
2017-11-26T19:36:16.478Z,87.70
2017-11-26T19:38:43.957Z,87.50
2017-11-26T19:41:12.246Z,87.70
2017-11-26T19:43:40.484Z,87.70
2017-11-26T19:46:07.972Z,87.60
2017-11-26T19:48:36.271Z,87.90
2017-11-26T19:51:04.499Z,87.90
2017-11-26T19:53:31.987Z,87.80
2017-11-26T19:56:00.224Z,87.60
2017-11-26T19:58:34.359Z,87.50
2017-11-26T20:01:01.857Z,87.20
2017-11-26T20:03:29.374Z,87.00
2017-11-26T20:05:57.603Z,87.20
2017-11-26T20:08:25.067Z,87.10
2017-11-26T20:10:52.530Z,86.90
2017-11-26T20:13:19.998Z,86.70
2017-11-26T20:15:47.533Z,86.50
2017-11-26T20:18:14.994Z,87.20
2017-11-26T20:20:42.499Z,87.30
2017-11-26T20:23:10.770Z,87.10
2017-11-26T20:25:39.045Z,87.10
2017-11-26T20:28:06.515Z,86.80
2017-11-26T20:30:34.084Z,86.80
2017-11-26T20:33:01.704Z,86.70
2017-11-26T20:35:29.165Z,86.80
2017-11-26T20:37:56.629Z,86.60
2017-11-26T20:40:24.251Z,86.60
2017-11-26T20:42:51.756Z,86.60
2017-11-26T20:45:19.286Z,87.00
2017-11-26T20:47:46.803Z,86.80
2017-11-26T20:50:14.378Z,86.70
2017-11-26T20:52:41.838Z,87.00
2017-11-26T20:55:09.314Z,86.90
2017-11-26T20:57:36.776Z,87.40
2017-11-26T21:00:04.267Z,88.30
2017-11-26T21:02:31.747Z,87.30
2017-11-26T21:04:59.270Z,87.50
2017-11-26T21:07:27.547Z,88.10
2017-11-26T21:09:55.027Z,88.20
2017-11-26T21:12:23.275Z,88.40
2017-11-26T21:14:50.826Z,88.20
2017-11-26T21:17:18.295Z,88.40
2017-11-26T21:19:45.854Z,88.30
2017-11-26T21:22:13.315Z,89.00
2017-11-26T21:24:40.835Z,88.80
2017-11-26T21:27:08.294Z,88.60
2017-11-26T21:29:35.757Z,88.90
2017-11-26T21:32:03.215Z,88.10
2017-11-26T21:34:30.671Z,88.20
2017-11-26T21:36:58.144Z,88.10
2017-11-26T21:39:25.616Z,88.10
2017-11-26T21:41:53.163Z,87.30
2017-11-26T21:44:20.622Z,87.20
2017-11-26T21:46:48.088Z,87.40
2017-11-26T21:49:15.550Z,87.20
2017-11-26T21:51:43.775Z,87.40
2017-11-26T21:54:11.235Z,87.30
2017-11-26T21:56:38.703Z,87.30
2017-11-26T21:59:06.236Z,87.20
2017-11-26T22:01:33.697Z,87.40
2017-11-26T22:04:01.340Z,87.90
2017-11-26T22:06:28.853Z,87.10
2017-11-26T22:08:56.311Z,87.90
2017-11-26T22:11:23.874Z,87.70
2017-11-26T22:13:51.344Z,86.90
2017-11-26T22:16:19.575Z,86.90
2017-11-26T22:18:47.041Z,86.90
2017-11-26T22:21:14.503Z,86.80
2017-11-26T22:23:42.033Z,86.60
2017-11-26T22:26:09.525Z,86.70
2017-11-26T22:28:36.991Z,86.60
2017-11-26T22:31:04.454Z,86.80
2017-11-26T22:33:31.998Z,86.10
2017-11-26T22:35:59.468Z,86.20
2017-11-26T22:38:27.943Z,85.90
2017-11-26T22:40:55.503Z,85.80
2017-11-26T22:43:23.115Z,86.10
2017-11-26T22:45:50.611Z,85.80
2017-11-26T22:48:19.663Z,86.00
2017-11-26T22:50:48.669Z,85.70
2017-11-26T22:53:16.135Z,85.70
2017-11-26T22:55:43.674Z,85.20
2017-11-26T22:58:11.131Z,85.20
2017-11-26T23:00:38.797Z,85.30
2017-11-26T23:03:06.299Z,85.60
2017-11-26T23:05:33.851Z,84.60
2017-11-26T23:08:01.471Z,84.70
2017-11-26T23:10:28.986Z,84.60
2017-11-26T23:12:57.207Z,84.80
2017-11-26T23:15:24.677Z,84.80
2017-11-26T23:17:52.212Z,85.10
2017-11-26T23:20:19.772Z,84.90
2017-11-26T23:22:47.230Z,85.30
2017-11-26T23:25:14.694Z,85.40
2017-11-26T23:27:42.154Z,85.80
2017-11-26T23:30:09.610Z,85.30
2017-11-26T23:32:37.065Z,85.60
2017-11-26T23:35:04.524Z,85.50
2017-11-26T23:37:32.023Z,85.00
2017-11-26T23:39:59.719Z,85.20
2017-11-26T23:42:27.174Z,85.40
2017-11-26T23:44:54.877Z,85.10
2017-11-26T23:47:22.339Z,85.10
2017-11-26T23:49:49.795Z,84.90
2017-11-26T23:52:17.250Z,85.10
2017-11-26T23:54:44.731Z,85.00
2017-11-26T23:57:12.183Z,84.80
2017-11-26T23:59:39.690Z,84.60
